Time;durP1;ratioP1;P1;durP2;ratioP2;P2;SDS_P1;SDS_P2;PMS_P1;PMS_P2;Temp;Humidity;BMP_temperature;BMP_pressure;BME280_temperature;BME280_humidity;BME280_pressure;Samples;Min_cycle;Max_cycle;Signal;HPM_P1;HPM_P2
2022/05/15 00:02:24;;;;;;;4.63;1.60;;;9.30;99.90;;;;;;5110474;28;20477;-70
2022/05/15 00:04:50;;;;;;;4.50;1.67;;;9.40;99.90;;;;;;5075672;28;20043;-70
2022/05/15 00:07:15;;;;;;;4.95;2.15;;;9.50;99.90;;;;;;5110444;28;20085;-70
2022/05/15 00:09:41;;;;;;;7.82;2.30;;;9.50;99.90;;;;;;5087511;28;20047;-70
2022/05/15 00:12:08;;;;;;;4.85;1.67;;;9.70;99.90;;;;;;5093756;28;20096;-70
2022/05/15 00:14:34;;;;;;;3.40;1.50;;;9.70;99.90;;;;;;5093670;28;20040;-70
2022/05/15 00:16:59;;;;;;;;;;;9.80;99.90;;;;;;5110759;28;20122;-70
2022/05/15 00:19:26;;;;;;;3.92;1.60;;;9.80;99.90;;;;;;5109145;28;19998;-70
2022/05/15 00:21:52;;;;;;;2.10;1.42;;;9.80;99.90;;;;;;5090353;28;20109;-70
2022/05/15 00:24:19;;;;;;;3.08;1.20;;;9.80;99.90;;;;;;5089914;28;20048;-70
2022/05/15 00:26:44;;;;;;;3.55;1.20;;;9.90;99.90;;;;;;5090242;28;20088;-70
2022/05/15 00:29:10;;;;;;;4.05;1.30;;;9.80;99.90;;;;;;5100109;28;20040;-70
2022/05/15 00:31:36;;;;;;;4.10;1.30;;;9.80;99.90;;;;;;5095008;28;20051;-70
2022/05/15 00:34:02;;;;;;;4.45;1.20;;;9.80;99.90;;;;;;5073027;28;20483;-70
2022/05/15 00:36:28;;;;;;;5.72;1.67;;;9.80;99.90;;;;;;5089965;28;20040;-70
2022/05/15 00:38:53;;;;;;;2.72;1.45;;;9.80;99.90;;;;;;5073260;28;20036;-70
2022/05/15 00:41:19;;;;;;;3.10;1.30;;;9.80;99.90;;;;;;5073308;28;20131;-70
2022/05/15 00:43:54;;;;;;;4.43;1.80;;;9.70;99.90;;;;;;5089772;28;20044;-70
2022/05/15 00:46:38;;;;;;;3.83;1.60;;;9.70;99.90;;;;;;5093653;28;20189;-70
2022/05/15 00:49:08;;;;;;;5.57;1.90;;;9.70;99.90;;;;;;5093176;28;20044;-70
2022/05/15 00:51:46;;;;;;;4.70;1.70;;;9.70;99.90;;;;;;5093608;28;20051;-70
2022/05/15 00:54:14;;;;;;;3.47;1.70;;;9.60;99.90;;;;;;5076732;28;20044;-70
2022/05/15 00:56:53;;;;;;;3.58;1.45;;;9.60;99.90;;;;;;5093380;28;20056;-70
2022/05/15 00:59:22;;;;;;;3.10;1.42;;;9.50;99.90;;;;;;5102654;28;20047;-70
2022/05/15 01:01:48;;;;;;;3.72;1.60;;;9.40;99.90;;;;;;5113940;28;20490;-70
2022/05/15 01:04:14;;;;;;;4.18;1.70;;;9.40;99.90;;;;;;5113828;28;20176;-70
2022/05/15 01:06:43;;;;;;;3.38;1.50;;;9.30;99.90;;;;;;5095423;28;20051;-70
2022/05/15 01:09:10;;;;;;;3.15;1.70;;;9.20;99.90;;;;;;5093706;28;20054;-70
2022/05/15 01:11:37;;;;;;;4.95;1.92;;;9.30;99.90;;;;;;5093582;28;20474;-70
2022/05/15 01:14:05;;;;;;;4.45;1.60;;;9.30;99.90;;;;;;5076523;28;20067;-70
2022/05/15 01:16:32;;;;;;;3.72;1.60;;;9.30;99.90;;;;;;5093259;28;20492;-70
2022/05/15 01:18:59;;;;;;;4.78;1.90;;;9.20;99.90;;;;;;5076648;28;20046;-70
2022/05/15 01:21:30;;;;;;;3.00;1.70;;;9.20;99.90;;;;;;5092942;28;20051;-70
2022/05/15 01:23:57;;;;;;;4.07;1.50;;;9.10;99.90;;;;;;5076228;28;20040;-70
2022/05/15 01:26:25;;;;;;;3.70;1.50;;;9.10;99.90;;;;;;5095683;28;20043;-70
2022/05/15 01:28:51;;;;;;;3.05;1.40;;;9.10;99.90;;;;;;5092841;28;20044;-70
2022/05/15 01:31:17;;;;;;;2.13;1.10;;;9.00;99.90;;;;;;5092883;28;20051;-70
2022/05/15 01:33:48;;;;;;;2.15;1.10;;;9.00;99.90;;;;;;5076247;28;20365;-70
2022/05/15 01:36:16;;;;;;;3.38;1.13;;;8.90;99.90;;;;;;5094824;28;20073;-70
2022/05/15 01:38:41;;;;;;;3.28;1.30;;;8.80;99.90;;;;;;5083715;28;20112;-69
2022/05/15 01:41:07;;;;;;;2.80;1.23;;;8.80;99.90;;;;;;5115567;28;20478;-70
2022/05/15 01:43:33;;;;;;;3.45;1.15;;;8.80;99.90;;;;;;5097535;28;20397;-70
2022/05/15 01:45:59;;;;;;;;;;;8.70;99.90;;;;;;5114589;28;20051;-70
2022/05/15 01:48:26;;;;;;;3.63;1.25;;;8.60;99.90;;;;;;5095031;28;19930;-70
2022/05/15 01:50:52;;;;;;;2.75;1.20;;;8.60;99.90;;;;;;5097695;28;20044;-70
2022/05/15 01:53:18;;;;;;;3.00;1.23;;;8.50;99.90;;;;;;5059498;28;20040;-70
2022/05/15 01:55:43;;;;;;;1.58;0.90;;;8.50;99.90;;;;;;5098614;28;20475;-71
2022/05/15 01:58:10;;;;;;;4.13;1.27;;;8.40;99.90;;;;;;5074774;28;20059;-70
2022/05/15 02:00:37;;;;;;;2.85;1.20;;;8.40;99.90;;;;;;5087106;28;20046;-70
2022/05/15 02:03:03;;;;;;;2.22;1.05;;;8.30;99.90;;;;;;5095731;28;20036;-70
2022/05/15 02:05:29;;;;;;;1.98;1.10;;;8.30;99.90;;;;;;5107668;28;20143;-70
2022/05/15 02:07:55;;;;;;;2.75;1.10;;;8.30;99.90;;;;;;5092521;28;20055;-70
2022/05/15 02:10:21;;;;;;;1.45;0.90;;;8.20;99.90;;;;;;5058544;28;20616;-70
2022/05/15 02:12:46;;;;;;;3.58;1.23;;;8.20;99.90;;;;;;5102604;28;20046;-70
2022/05/15 02:15:13;;;;;;;1.85;0.98;;;8.20;99.90;;;;;;5111603;28;20031;-70
2022/05/15 02:17:40;;;;;;;1.90;1.00;;;8.20;99.90;;;;;;5112401;28;20405;-70
2022/05/15 02:20:07;;;;;;;1.23;0.85;;;8.10;99.90;;;;;;5095317;28;20042;-70
2022/05/15 02:22:33;;;;;;;2.83;1.00;;;8.10;99.90;;;;;;5095301;28;20042;-70
2022/05/15 02:24:59;;;;;;;1.80;0.85;;;8.10;99.90;;;;;;5112278;28;20032;-71
2022/05/15 02:27:24;;;;;;;3.58;1.50;;;8.10;99.90;;;;;;5076716;28;20633;-70
2022/05/15 02:29:50;;;;;;;2.20;1.20;;;8.10;99.90;;;;;;5078447;28;20081;-71
2022/05/15 02:32:15;;;;;;;1.55;0.98;;;8.10;99.90;;;;;;5112137;28;20047;-70
2022/05/15 02:34:41;;;;;;;2.40;1.27;;;8.00;99.90;;;;;;5078638;28;20046;-70
2022/05/15 02:37:07;;;;;;;2.67;1.10;;;8.00;99.90;;;;;;5093500;28;20467;-70
2022/05/15 02:39:33;;;;;;;2.47;1.20;;;7.90;99.90;;;;;;5111302;28;20036;-71
2022/05/15 02:42:01;;;;;;;2.60;1.25;;;7.90;99.90;;;;;;5077388;28;20490;-70
2022/05/15 02:44:28;;;;;;;4.57;1.50;;;7.90;99.90;;;;;;5091358;28;20147;-70
2022/05/15 02:46:53;;;;;;;3.35;1.20;;;7.80;99.90;;;;;;5091181;28;20044;-70
2022/05/15 02:52:03;;;;;;;1.70;0.93;;;7.80;99.90;;;;;;5091294;28;20040;-71
2022/05/15 02:54:29;;;;;;;3.35;1.27;;;7.80;99.90;;;;;;5091111;28;20052;-70
2022/05/15 02:56:56;;;;;;;3.58;0.95;;;7.80;99.90;;;;;;5080750;28;20087;-71
2022/05/15 02:59:22;;;;;;;1.60;0.98;;;7.80;99.90;;;;;;5094559;28;20097;-71
2022/05/15 03:01:47;;;;;;;3.85;1.02;;;7.80;99.90;;;;;;5074343;28;20036;-71
2022/05/15 03:04:13;;;;;;;1.92;1.02;;;7.80;99.90;;;;;;5091072;28;20040;-70
2022/05/15 03:06:39;;;;;;;2.75;1.05;;;7.80;99.90;;;;;;5073570;28;20071;-70
2022/05/15 03:09:04;;;;;;;3.30;1.30;;;7.80;99.90;;;;;;5091173;28;20086;-70
2022/05/15 03:11:31;;;;;;;3.80;1.35;;;7.80;99.90;;;;;;5091358;28;20101;-70
2022/05/15 03:13:56;;;;;;;1.83;0.90;;;7.80;99.90;;;;;;5090490;28;20058;-70
2022/05/15 03:16:22;;;;;;;2.85;1.13;;;7.80;99.90;;;;;;5094555;28;20047;-70
2022/05/15 03:18:50;;;;;;;2.03;1.20;;;7.80;99.90;;;;;;5111243;28;20039;-70
2022/05/15 03:21:30;;;;;;;3.55;1.20;;;7.80;99.90;;;;;;5111055;28;20091;-70
2022/05/15 03:24:07;;;;;;;2.83;1.00;;;7.70;99.90;;;;;;5110825;28;20077;-71
2022/05/15 03:26:36;;;;;;;1.65;0.90;;;7.70;99.90;;;;;;5093940;28;20054;-71
2022/05/15 03:29:03;;;;;;;2.97;1.40;;;7.70;99.90;;;;;;5074579;28;20044;-71
2022/05/15 03:31:28;;;;;;;2.92;1.30;;;7.70;99.90;;;;;;5090630;28;20056;-70
2022/05/15 03:33:54;;;;;;;1.65;0.90;;;7.70;99.90;;;;;;5091002;28;20047;-70
2022/05/15 03:36:20;;;;;;;3.08;1.30;;;7.60;99.90;;;;;;5090636;28;20063;-70
2022/05/15 03:38:46;;;;;;;2.40;1.30;;;7.70;99.90;;;;;;5090430;28;20463;-71
2022/05/15 03:41:13;;;;;;;3.97;1.45;;;7.70;99.90;;;;;;5091645;28;21465;-70
2022/05/15 03:43:39;;;;;;;1.90;0.85;;;7.70;99.90;;;;;;5093760;28;20052;-71
2022/05/15 03:46:06;;;;;;;1.92;0.90;;;7.70;99.90;;;;;;5094135;28;20039;-70
2022/05/15 03:48:33;;;;;;;2.15;1.00;;;7.70;99.90;;;;;;5075824;28;20040;-70
2022/05/15 03:50:59;;;;;;;1.42;0.90;;;7.70;99.90;;;;;;5056739;28;20044;-70
2022/05/15 03:53:26;;;;;;;2.35;1.00;;;7.70;99.90;;;;;;5072562;28;20395;-70
2022/05/15 03:55:56;;;;;;;3.85;1.30;;;7.80;99.90;;;;;;5073471;28;20044;-70
2022/05/15 03:58:23;;;;;;;3.08;1.25;;;7.80;99.90;;;;;;5091369;28;20383;-70
2022/05/15 04:00:49;;;;;;;3.20;1.60;;;7.90;99.90;;;;;;5090058;28;20083;-70
2022/05/15 04:03:14;;;;;;;3.10;1.33;;;8.00;99.90;;;;;;5072835;28;20064;-70
2022/05/15 04:05:40;;;;;;;8.15;1.80;;;8.00;99.90;;;;;;5090080;28;20081;-70
2022/05/15 04:08:06;;;;;;;3.55;1.02;;;8.00;99.90;;;;;;5090248;28;20063;-70
2022/05/15 04:10:32;;;;;;;5.15;1.58;;;8.10;99.90;;;;;;5073444;28;20498;-71
2022/05/15 04:12:57;;;;;;;3.63;1.45;;;8.10;99.90;;;;;;5083730;28;20478;-71
2022/05/15 04:15:23;;;;;;;5.10;1.83;;;8.20;99.90;;;;;;5093650;28;20044;-70
2022/05/15 04:17:50;;;;;;;4.22;1.48;;;8.20;99.90;;;;;;5082562;28;20044;-71
2022/05/15 04:20:21;;;;;;;4.55;1.52;;;8.30;99.90;;;;;;5072584;28;20076;-71
2022/05/15 04:22:47;;;;;;;3.53;1.50;;;8.30;99.90;;;;;;5090052;28;20126;-70
2022/05/15 04:25:13;;;;;;;3.35;1.30;;;8.40;99.90;;;;;;5073453;28;20516;-70
2022/05/15 04:27:42;;;;;;;1.75;0.88;;;8.40;99.90;;;;;;5079189;28;20067;-70
2022/05/15 04:30:11;;;;;;;4.10;1.50;;;8.50;99.90;;;;;;5110447;28;20151;-70
2022/05/15 04:32:37;;;;;;;4.70;1.60;;;8.60;99.90;;;;;;5110044;28;20049;-70
2022/05/15 04:35:04;;;;;;;4.22;1.48;;;8.60;99.90;;;;;;5093335;28;20395;-71
2022/05/15 04:37:30;;;;;;;3.35;1.50;;;8.70;99.90;;;;;;5110034;28;20090;-70
2022/05/15 04:39:56;;;;;;;4.32;1.80;;;8.80;99.90;;;;;;5093045;28;20456;-70
2022/05/15 04:42:22;;;;;;;4.40;1.48;;;9.00;99.90;;;;;;5080647;28;20105;-70
2022/05/15 04:44:48;;;;;;;4.65;1.77;;;9.00;99.90;;;;;;5072182;28;20063;-71
2022/05/15 04:47:14;;;;;;;4.45;1.70;;;9.10;99.90;;;;;;5089648;28;20131;-70
2022/05/15 04:49:40;;;;;;;2.65;1.40;;;9.20;99.90;;;;;;5089917;28;20071;-70
2022/05/15 04:52:05;;;;;;;4.10;1.42;;;9.20;99.90;;;;;;5089545;28;20526;-70
2022/05/15 04:54:31;;;;;;;3.35;1.50;;;9.20;99.90;;;;;;5072682;28;20445;-70
2022/05/15 04:56:57;;;;;;;2.97;1.30;;;9.30;99.90;;;;;;5090862;28;20058;-70
2022/05/15 04:59:23;;;;;;;4.28;1.52;;;9.30;99.90;;;;;;5093180;28;20047;-71
2022/05/15 05:01:48;;;;;;;7.20;2.67;;;9.40;99.90;;;;;;5076469;28;20386;-70
2022/05/15 05:04:14;;;;;;;8.55;2.53;;;9.50;99.90;;;;;;5109858;28;20116;-70
2022/05/15 05:06:41;;;;;;;8.85;2.97;;;9.60;99.90;;;;;;5108046;28;20052;-71
2022/05/15 05:09:07;;;;;;;6.13;2.00;;;9.60;99.90;;;;;;5097405;28;20035;-71
2022/05/15 05:11:33;;;;;;;7.55;2.33;;;9.80;99.90;;;;;;5109957;28;20497;-71
2022/05/15 05:13:58;;;;;;;5.90;2.08;;;9.90;99.90;;;;;;5109681;28;20075;-70
2022/05/15 05:16:24;;;;;;;4.80;1.98;;;10.00;99.90;;;;;;5092752;28;20044;-70
2022/05/15 05:18:51;;;;;;;3.10;1.40;;;10.00;99.90;;;;;;5072755;28;20040;-70
2022/05/15 05:21:17;;;;;;;6.18;2.00;;;10.10;99.90;;;;;;5101859;28;20147;-70
2022/05/15 05:23:43;;;;;;;5.90;1.75;;;10.20;99.90;;;;;;5110010;28;20498;-70
2022/05/15 05:26:08;;;;;;;7.25;2.03;;;10.20;99.90;;;;;;5109496;28;20055;-71
2022/05/15 05:28:34;;;;;;;4.72;2.03;;;10.30;99.90;;;;;;5109601;28;20043;-70
2022/05/15 05:31:00;;;;;;;14.80;3.38;;;10.40;99.90;;;;;;5109802;28;20079;-70
2022/05/15 05:33:26;;;;;;;8.23;2.60;;;10.50;99.90;;;;;;5106431;28;20075;-70
2022/05/15 05:35:53;;;;;;;7.78;2.53;;;10.60;99.90;;;;;;5076004;28;20091;-70
2022/05/15 05:38:19;;;;;;;7.05;2.30;;;10.70;99.90;;;;;;5075750;28;20482;-70
2022/05/15 05:40:45;;;;;;;;;;;10.80;99.90;;;;;;5076247;28;20044;-70
2022/05/15 05:43:11;;;;;;;5.75;2.40;;;10.80;99.90;;;;;;5092637;28;19927;-70
2022/05/15 05:45:37;;;;;;;11.32;3.20;;;10.90;99.90;;;;;;5092772;28;20088;-70
2022/05/15 05:48:03;;;;;;;7.85;2.72;;;11.00;99.90;;;;;;5092085;28;20097;-70
2022/05/15 05:50:29;;;;;;;;;;;11.10;99.90;;;;;;5093099;28;20072;-70
2022/05/15 05:52:57;;;;;;;10.13;2.97;;;11.20;99.90;;;;;;5095730;28;20423;-70
2022/05/15 05:55:24;;;;;;;10.30;2.97;;;11.30;99.90;;;;;;5113093;28;20040;-70
2022/05/15 05:57:50;;;;;;;10.27;2.65;;;11.40;99.90;;;;;;5111421;28;20513;-70
2022/05/15 06:00:21;;;;;;;;;;;11.60;99.90;;;;;;5113066;28;20043;-70
2022/05/15 06:02:47;;;;;;;11.00;3.20;;;11.80;99.90;;;;;;5102488;28;19920;-71
2022/05/15 06:05:13;;;;;;;10.85;2.67;;;12.20;99.90;;;;;;5092581;28;20055;-71
2022/05/15 06:07:39;;;;;;;6.40;2.45;;;12.70;99.90;;;;;;5092136;28;20429;-71
2022/05/15 06:10:07;;;;;;;12.90;3.05;;;13.40;99.90;;;;;;5092303;28;20479;-70
2022/05/15 06:12:33;;;;;;;11.55;3.33;;;13.80;99.90;;;;;;5074642;28;20036;-71
2022/05/15 06:14:59;;;;;;;13.50;3.50;;;14.00;99.90;;;;;;5091905;28;20051;-71
2022/05/15 06:17:28;;;;;;;10.70;2.88;;;14.00;99.90;;;;;;5091809;28;20036;-70
2022/05/15 06:19:54;;;;;;;7.93;3.25;;;13.80;99.90;;;;;;5108245;28;20036;-70
2022/05/15 06:22:20;;;;;;;7.90;2.70;;;13.50;99.90;;;;;;5112805;28;20035;-71
2022/05/15 06:24:46;;;;;;;6.22;2.40;;;13.40;99.90;;;;;;5112108;28;20389;-70
2022/05/15 06:27:12;;;;;;;9.60;2.63;;;13.50;99.90;;;;;;5112122;28;20039;-71
2022/05/15 06:29:39;;;;;;;10.70;3.47;;;13.60;99.90;;;;;;5112264;28;20046;-71
2022/05/15 06:32:06;;;;;;;9.65;3.05;;;13.70;99.90;;;;;;5094603;28;20043;-71
2022/05/15 06:34:32;;;;;;;8.93;3.30;;;13.70;99.90;;;;;;5093322;28;20101;-71
2022/05/15 06:36:58;;;;;;;12.25;3.35;;;13.70;99.90;;;;;;5111876;28;20040;-70
2022/05/15 06:39:23;;;;;;;10.00;3.47;;;13.70;99.90;;;;;;5111997;28;20084;-69
2022/05/15 06:41:50;;;;;;;10.48;3.38;;;13.80;99.90;;;;;;5111143;28;20498;-70
2022/05/15 06:44:17;;;;;;;12.95;3.70;;;13.80;99.90;;;;;;5091293;28;20048;-70
2022/05/15 06:46:44;;;;;;;11.55;3.45;;;13.90;99.90;;;;;;5090656;28;20040;-69
2022/05/15 06:49:10;;;;;;;12.05;3.50;;;14.00;99.90;;;;;;5074021;28;20055;-69
2022/05/15 06:51:35;;;;;;;11.65;3.00;;;14.20;99.90;;;;;;5075777;28;20495;-69
2022/05/15 06:54:01;;;;;;;7.18;2.67;;;14.30;99.90;;;;;;5075204;28;20043;-69
2022/05/15 06:59:11;;;;;;;10.63;3.10;;;14.60;99.90;;;;;;5090783;28;20166;-70
2022/05/15 07:01:37;;;;;;;9.50;2.78;;;14.70;99.90;;;;;;5090882;28;20492;-70
2022/05/15 07:04:02;;;;;;;10.73;2.92;;;14.90;99.90;;;;;;5073894;28;20089;-70
2022/05/15 07:06:28;;;;;;;11.82;3.05;;;15.00;99.90;;;;;;5074112;28;20044;-70
2022/05/15 07:08:54;;;;;;;10.23;3.50;;;15.10;99.90;;;;;;5102698;28;20047;-70
2022/05/15 07:11:20;;;;;;;8.18;2.75;;;15.30;99.90;;;;;;5073317;28;20040;-70
2022/05/15 07:13:46;;;;;;;12.07;3.45;;;15.40;99.90;;;;;;5090743;28;20044;-71
2022/05/15 07:16:11;;;;;;;13.07;3.13;;;15.60;99.90;;;;;;5090613;28;20055;-70
2022/05/15 07:18:38;;;;;;;9.80;3.00;;;15.80;99.90;;;;;;5073670;28;20123;-71
2022/05/15 07:21:04;;;;;;;11.63;3.47;;;15.90;99.90;;;;;;5073727;28;20125;-71
2022/05/15 07:23:30;;;;;;;8.23;2.30;;;15.90;99.90;;;;;;5090584;28;20032;-71
2022/05/15 07:25:56;;;;;;;9.05;3.25;;;16.10;99.90;;;;;;5092905;28;20051;-71
2022/05/15 07:28:22;;;;;;;11.43;3.20;;;16.10;99.90;;;;;;5094324;28;20442;-71
2022/05/15 07:30:50;;;;;;;10.88;3.60;;;16.10;99.90;;;;;;5110013;28;20050;-71
2022/05/15 07:33:20;;;;;;;7.82;3.20;;;16.20;99.90;;;;;;5093648;28;20551;-71
2022/05/15 07:35:46;;;;;;;9.95;3.47;;;16.40;99.90;;;;;;5110639;28;20040;-71
2022/05/15 07:38:12;;;;;;;11.43;3.50;;;16.60;99.90;;;;;;5092282;28;20092;-71
2022/05/15 07:40:38;;;;;;;7.32;2.65;;;16.80;99.90;;;;;;5104325;28;20078;-71
2022/05/15 07:43:08;;;;;;;9.80;3.22;;;17.00;99.90;;;;;;5090011;28;20340;-70
2022/05/15 07:45:34;;;;;;;8.43;2.70;;;17.10;99.90;;;;;;5073388;28;20477;-71
2022/05/15 07:48:00;;;;;;;;;;;17.40;99.90;;;;;;5090459;28;20044;-71
2022/05/15 07:50:26;;;;;;;8.20;2.28;;;17.80;99.90;;;;;;5095784;28;19984;-68
2022/05/15 07:52:52;;;;;;;11.25;3.30;;;17.90;99.90;;;;;;5093639;28;20126;-68
2022/05/15 07:55:18;;;;;;;;;;;18.00;99.90;;;;;;5097872;28;20040;-68
2022/05/15 07:57:43;;;;;;;6.30;2.45;;;18.10;99.90;;;;;;5090106;28;19946;-68
2022/05/15 08:00:12;;;;;;;8.23;2.55;;;18.30;99.90;;;;;;5089787;28;20102;-69
2022/05/15 08:02:37;;;;;;;7.82;2.70;;;18.40;99.90;;;;;;5089744;28;20473;-68
2022/05/15 08:08:09;;;;;;;7.82;2.78;;;18.80;99.90;;;;;;5089878;28;20385;-68
2022/05/15 08:10:46;;;;;;;7.38;2.35;;;19.20;99.90;;;;;;5090588;28;20058;-68
2022/05/15 08:13:18;;;;;;;6.53;2.45;;;19.40;99.90;;;;;;5101092;28;20036;-68
2022/05/15 08:15:44;;;;;;;8.30;2.67;;;19.50;98.90;;;;;;5109673;28;20079;-68
2022/05/15 08:23:50;;;;;;;7.40;2.78;;;19.80;96.40;;;;;;5109746;28;20487;-69
2022/05/15 08:26:16;;;;;;;11.38;3.15;;;19.80;95.70;;;;;;5089445;28;20043;-69
2022/05/15 08:28:42;;;;;;;;;;;19.90;96.70;;;;;;5108852;28;20039;-68
2022/05/15 08:31:08;;;;;;;8.55;2.72;;;20.00;97.80;;;;;;5092361;28;19931;-69
2022/05/15 08:33:35;;;;;;;6.55;2.28;;;19.90;96.10;;;;;;5089363;28;20126;-69
2022/05/15 08:36:03;;;;;;;8.52;2.47;;;20.00;96.80;;;;;;5089433;28;20178;-69
2022/05/15 08:38:28;;;;;;;6.40;2.40;;;20.10;95.40;;;;;;5089517;28;20067;-69
2022/05/15 08:41:08;;;;;;;8.82;2.50;;;20.20;95.10;;;;;;5088484;28;20104;-68
2022/05/15 08:43:42;;;;;;;5.57;2.20;;;20.20;95.20;;;;;;5089294;28;20101;-69
2022/05/15 08:46:31;;;;;;;4.72;1.85;;;20.30;95.40;;;;;;5072190;28;20052;-69
2022/05/15 08:49:20;;;;;;;5.90;2.38;;;20.30;96.10;;;;;;5088603;28;20085;-69
2022/05/15 08:52:00;;;;;;;5.10;2.50;;;20.50;95.40;;;;;;5109456;28;20101;-69
2022/05/15 08:54:26;;;;;;;5.47;2.13;;;20.50;94.80;;;;;;5102913;28;20093;-69
2022/05/15 08:56:54;;;;;;;6.10;2.20;;;20.60;94.60;;;;;;5089417;28;20059;-69
2022/05/15 08:59:25;;;;;;;8.43;2.38;;;20.60;93.40;;;;;;5056312;28;20044;-69
2022/05/15 09:01:53;;;;;;;7.10;2.67;;;20.80;93.70;;;;;;5089829;28;20118;-69
2022/05/15 09:04:19;;;;;;;5.95;2.25;;;20.90;93.50;;;;;;5072589;28;20174;-69
2022/05/15 09:06:57;;;;;;;4.72;1.90;;;21.00;95.00;;;;;;5092714;28;20518;-69
2022/05/15 09:09:44;;;;;;;5.53;1.60;;;21.30;94.30;;;;;;5099698;28;20043;-69
2022/05/15 09:12:17;;;;;;;6.70;2.08;;;21.40;93.50;;;;;;5113442;28;20051;-69
2022/05/15 09:15:01;;;;;;;5.93;1.92;;;21.40;93.10;;;;;;5113804;28;20100;-69
2022/05/15 09:17:41;;;;;;;6.60;2.40;;;21.60;93.00;;;;;;5112438;28;20043;-69
2022/05/15 09:20:12;;;;;;;6.25;2.03;;;21.50;92.50;;;;;;5113729;28;20143;-69
2022/05/15 09:22:46;;;;;;;6.70;2.30;;;21.60;92.80;;;;;;5111642;28;20047;-70
2022/05/15 09:25:21;;;;;;;6.70;2.08;;;21.60;91.70;;;;;;5113615;28;20543;-69
2022/05/15 09:28:07;;;;;;;5.90;2.10;;;21.80;92.70;;;;;;5113268;28;20048;-69
2022/05/15 09:30:45;;;;;;;7.07;2.40;;;21.90;92.00;;;;;;5096442;28;20097;-68
2022/05/15 09:33:46;;;;;;;7.45;2.25;;;22.00;91.30;;;;;;5075981;28;20331;-69
2022/05/15 09:36:23;;;;;;;6.47;2.45;;;22.30;91.60;;;;;;5092605;28;20048;-69
2022/05/15 09:39:06;;;;;;;5.95;2.28;;;22.30;90.50;;;;;;5093147;28;20039;-69
2022/05/15 09:44:34;;;;;;;6.72;2.65;;;22.20;91.10;;;;;;5092681;28;20080;-68
2022/05/15 09:47:18;;;;;;;6.80;2.30;;;22.20;90.40;;;;;;5092956;28;20113;-69
2022/05/15 09:49:45;;;;;;;8.27;2.75;;;22.10;90.60;;;;;;5092780;28;20044;-68
2022/05/15 09:52:24;;;;;;;6.18;2.20;;;22.10;90.60;;;;;;5099765;28;20047;-69
2022/05/15 09:54:50;;;;;;;7.15;2.65;;;22.30;90.30;;;;;;5113054;28;20079;-68
2022/05/15 09:57:27;;;;;;;7.82;2.22;;;22.30;88.30;;;;;;5095732;28;20054;-69
2022/05/15 09:59:59;;;;;;;5.72;1.90;;;22.30;90.60;;;;;;5111213;28;20031;-69
2022/05/15 10:02:42;;;;;;;7.75;2.75;;;22.50;89.80;;;;;;5112854;28;20046;-68
2022/05/15 10:05:14;;;;;;;7.07;2.80;;;22.60;90.40;;;;;;5111797;28;20501;-68
2022/05/15 10:07:46;;;;;;;6.43;2.08;;;22.50;90.00;;;;;;5092528;28;20467;-69
2022/05/15 10:10:14;;;;;;;6.03;2.15;;;22.50;88.30;;;;;;5092218;28;20083;-69
2022/05/15 10:12:42;;;;;;;8.43;2.35;;;22.80;88.60;;;;;;5094837;28;20051;-69
2022/05/15 10:15:08;;;;;;;4.60;1.73;;;23.00;88.00;;;;;;5075460;28;20039;-69
2022/05/15 10:17:39;;;;;;;6.43;2.30;;;23.10;87.60;;;;;;5074513;28;20105;-68
2022/05/15 10:20:25;;;;;;;5.30;1.88;;;23.10;86.60;;;;;;5075076;28;20553;-68
2022/05/15 10:23:05;;;;;;;4.65;1.98;;;23.20;86.60;;;;;;5092320;28;20040;-68
2022/05/15 10:25:54;;;;;;;6.72;2.58;;;23.50;84.70;;;;;;5075052;28;20044;-68
2022/05/15 10:28:35;;;;;;;8.23;2.53;;;23.40;84.00;;;;;;5091838;28;20130;-68
2022/05/15 10:31:08;;;;;;;8.90;2.65;;;23.30;86.70;;;;;;5091754;28;20043;-68
2022/05/15 10:33:39;;;;;;;6.30;2.15;;;22.90;84.20;;;;;;5091966;28;20036;-68
2022/05/15 10:36:19;;;;;;;8.25;2.65;;;23.20;85.80;;;;;;5094206;28;20094;-69
2022/05/15 10:38:50;;;;;;;8.27;2.28;;;23.10;84.00;;;;;;5091786;28;20032;-68
2022/05/15 10:41:34;;;;;;;5.85;2.25;;;23.40;83.10;;;;;;5093092;28;20137;-68
2022/05/15 10:44:09;;;;;;;7.03;2.47;;;23.50;83.20;;;;;;5111887;28;20047;-69
2022/05/15 10:46:52;;;;;;;8.68;2.50;;;23.60;81.00;;;;;;5112098;28;20047;-68
2022/05/15 10:49:40;;;;;;;5.43;1.92;;;23.70;81.90;;;;;;5111764;28;20055;-68
2022/05/15 10:52:39;;;;;;;6.80;2.20;;;23.70;81.50;;;;;;5110727;28;20054;-68
2022/05/15 10:58:19;;;;;;;9.88;2.88;;;23.50;81.40;;;;;;5091182;28;20514;-68
2022/05/15 11:01:07;;;;;;;5.38;2.15;;;23.30;81.00;;;;;;5090962;28;20060;-68
2022/05/15 11:04:02;;;;;;;5.75;1.92;;;23.30;80.40;;;;;;5111052;28;20099;-69
2022/05/15 11:06:36;;;;;;;5.22;1.75;;;23.70;80.80;;;;;;5111668;28;20055;-68
2022/05/15 11:09:05;;;;;;;5.25;1.95;;;24.10;81.40;;;;;;5111464;28;20553;-72
2022/05/15 11:12:00;;;;;;;4.90;1.80;;;24.10;82.00;;;;;;5094453;28;20506;-68
2022/05/15 11:14:54;;;;;;;5.60;1.88;;;24.10;81.40;;;;;;5111199;28;20138;-68
2022/05/15 11:17:35;;;;;;;5.05;2.00;;;24.30;80.10;;;;;;5090840;28;20052;-69
2022/05/15 11:20:16;;;;;;;7.28;2.20;;;24.60;78.00;;;;;;5090791;28;20051;-69
2022/05/15 11:22:49;;;;;;;5.18;2.13;;;24.60;77.60;;;;;;5090715;28;20040;-68
2022/05/15 11:25:32;;;;;;;4.30;1.92;;;24.70;78.00;;;;;;5091200;28;20054;-69
2022/05/15 11:28:09;;;;;;;6.10;2.08;;;24.70;76.40;;;;;;5093782;28;20487;-68
2022/05/15 11:30:40;;;;;;;4.80;1.80;;;24.80;76.60;;;;;;5093227;28;20047;-69
2022/05/15 11:33:09;;;;;;;5.07;1.70;;;24.90;75.00;;;;;;5090920;28;20097;-69
2022/05/15 11:36:20;;;;;;;5.78;2.42;;;24.80;74.30;;;;;;5096419;28;20471;-68
2022/05/15 11:38:55;;;;;;;5.47;2.30;;;24.80;74.40;;;;;;5092909;28;20047;-69
2022/05/15 11:41:36;;;;;;;8.10;2.28;;;25.10;74.30;;;;;;5110863;28;20047;-68
2022/05/15 11:44:37;;;;;;;6.78;2.38;;;24.90;73.00;;;;;;5109165;28;20120;-68
2022/05/15 11:47:20;;;;;;;4.53;1.70;;;25.10;74.30;;;;;;5106677;28;20396;-69
2022/05/15 11:49:59;;;;;;;4.90;1.95;;;25.10;73.40;;;;;;5110987;28;20094;-68
2022/05/15 11:52:37;;;;;;;5.85;1.75;;;25.40;74.90;;;;;;5110642;28;20065;-68
2022/05/15 11:55:34;;;;;;;4.28;1.70;;;25.40;75.50;;;;;;5110753;28;20040;-69
2022/05/15 11:58:26;;;;;;;3.50;1.55;;;25.20;72.70;;;;;;5096539;28;20475;-68
2022/05/15 12:01:06;;;;;;;5.50;1.77;;;25.30;72.80;;;;;;5090135;28;20035;-69
2022/05/15 12:03:52;;;;;;;5.45;1.75;;;24.80;70.30;;;;;;5090140;28;20399;-69
2022/05/15 12:06:23;;;;;;;4.07;1.60;;;24.50;72.50;;;;;;5090081;28;20097;-69
2022/05/15 12:09:17;;;;;;;4.20;1.50;;;24.10;73.00;;;;;;5090310;28;20399;-69
2022/05/15 12:11:58;;;;;;;6.45;2.03;;;24.00;71.90;;;;;;5089379;28;20043;-69
2022/05/15 12:14:28;;;;;;;6.80;1.90;;;24.10;72.30;;;;;;5091086;28;20055;-69
2022/05/15 12:17:01;;;;;;;4.47;1.83;;;24.40;72.60;;;;;;5089867;28;20052;-69
2022/05/15 12:19:39;;;;;;;4.57;1.65;;;24.50;72.20;;;;;;5090285;28;20436;-69
2022/05/15 12:22:10;;;;;;;4.07;1.90;;;24.60;72.20;;;;;;5089667;28;20783;-69
2022/05/15 12:24:39;;;;;;;5.35;1.73;;;24.60;70.40;;;;;;5090035;28;20089;-69
2022/05/15 12:27:19;;;;;;;3.78;1.48;;;24.70;69.80;;;;;;5089558;28;20052;-69
2022/05/15 12:29:58;;;;;;;4.20;1.50;;;24.90;71.10;;;;;;5110135;28;20040;-69
2022/05/15 12:32:29;;;;;;;4.43;1.73;;;25.00;69.90;;;;;;5093207;28;20043;-69
2022/05/15 12:34:55;;;;;;;6.30;2.17;;;25.10;69.00;;;;;;5109487;28;20044;-69
2022/05/15 12:37:24;;;;;;;7.97;1.77;;;24.80;67.90;;;;;;5109442;28;20043;-68
2022/05/15 12:39:53;;;;;;;4.82;1.75;;;24.90;68.70;;;;;;5093208;28;20127;-69
2022/05/15 12:42:33;;;;;;;4.72;1.73;;;25.30;69.40;;;;;;5087483;28;20472;-69
2022/05/15 12:45:04;;;;;;;5.80;2.08;;;25.20;67.10;;;;;;5077054;28;20075;-69
2022/05/15 12:47:32;;;;;;;5.18;1.88;;;24.90;67.90;;;;;;5093851;28;20052;-69
2022/05/15 12:50:20;;;;;;;5.28;1.83;;;24.90;67.50;;;;;;5093850;28;20085;-68
2022/05/15 12:52:53;;;;;;;3.35;1.33;;;24.90;66.30;;;;;;5093981;28;20051;-69
2022/05/15 12:55:35;;;;;;;4.05;1.65;;;25.10;67.90;;;;;;5093290;28;20047;-70
2022/05/15 12:58:07;;;;;;;3.35;1.50;;;25.20;67.70;;;;;;5093444;28;20056;-69
2022/05/15 13:00:39;;;;;;;4.38;1.63;;;24.90;68.00;;;;;;5093596;28;20127;-69
2022/05/15 13:03:08;;;;;;;5.45;1.80;;;25.00;68.00;;;;;;5094142;28;20047;-70
2022/05/15 13:05:55;;;;;;;4.45;1.60;;;24.90;67.20;;;;;;5093488;28;20085;-69
2022/05/15 13:08:21;;;;;;;6.95;2.40;;;24.90;68.60;;;;;;5093544;28;20048;-69
2022/05/15 13:10:56;;;;;;;5.15;1.80;;;24.30;67.40;;;;;;5076506;28;20044;-69
2022/05/15 13:13:34;;;;;;;4.07;1.88;;;24.40;68.30;;;;;;5108301;28;20046;-69
2022/05/15 13:16:00;;;;;;;6.55;2.33;;;24.60;69.20;;;;;;5113450;28;20035;-69
2022/05/15 13:18:32;;;;;;;7.22;2.00;;;24.30;68.40;;;;;;5113882;28;20146;-69
2022/05/15 13:21:07;;;;;;;4.55;1.83;;;24.10;68.10;;;;;;5112191;28;20040;-69
2022/05/15 13:23:42;;;;;;;4.50;1.90;;;24.30;68.30;;;;;;5113637;28;20451;-69
2022/05/15 13:26:30;;;;;;;5.20;1.90;;;24.30;69.00;;;;;;5101955;28;20123;-69
2022/05/15 13:29:02;;;;;;;6.70;2.08;;;24.10;68.70;;;;;;5092581;28;20079;-69
2022/05/15 13:31:31;;;;;;;5.80;1.55;;;24.40;68.70;;;;;;5093058;28;20527;-69